sensor_id;sensor_type;location;lat;lon;timestamp;pressure;altitude;pressure_sealevel;temperature;humidity
39715;BME280;54166;53.172;-6.552;2023-04-08T00:01:24;99644.77;;;16.45;34.92
39715;BME280;54166;53.172;-6.552;2023-04-08T00:03:51;99645.83;;;16.11;34.85
39715;BME280;54166;53.172;-6.552;2023-04-08T00:06:18;99643.74;;;16.10;34.71
39715;BME280;54166;53.172;-6.552;2023-04-08T00:08:45;99642.92;;;16.10;34.76
39715;BME280;54166;53.172;-6.552;2023-04-08T00:11:12;99644.59;;;16.10;34.74
39715;BME280;54166;53.172;-6.552;2023-04-08T00:13:40;99643.73;;;16.09;34.67
39715;BME280;54166;53.172;-6.552;2023-04-08T00:16:08;99643.05;;;16.08;34.65
39715;BME280;54166;53.172;-6.552;2023-04-08T00:18:36;99643.17;;;16.07;34.80
39715;BME280;54166;53.172;-6.552;2023-04-08T00:21:03;99640.69;;;16.07;34.67
39715;BME280;54166;53.172;-6.552;2023-04-08T00:23:30;99636.20;;;16.06;34.67
39715;BME280;54166;53.172;-6.552;2023-04-08T00:25:58;99632.38;;;16.05;34.62
39715;BME280;54166;53.172;-6.552;2023-04-08T00:28:26;99631.25;;;16.04;34.68
39715;BME280;54166;53.172;-6.552;2023-04-08T00:30:53;99633.89;;;16.03;34.55
39715;BME280;54166;53.172;-6.552;2023-04-08T00:33:20;99636.03;;;16.03;34.64
39715;BME280;54166;53.172;-6.552;2023-04-08T00:35:47;99636.82;;;16.02;34.52
39715;BME280;54166;53.172;-6.552;2023-04-08T00:38:15;99638.76;;;16.01;34.54
39715;BME280;54166;53.172;-6.552;2023-04-08T00:40:42;99639.59;;;15.68;34.60
39715;BME280;54166;53.172;-6.552;2023-04-08T00:43:10;99639.23;;;16.01;34.59
39715;BME280;54166;53.172;-6.552;2023-04-08T00:45:37;99642.66;;;16.00;34.67
39715;BME280;54166;53.172;-6.552;2023-04-08T00:48:05;99642.21;;;16.00;34.87
39715;BME280;54166;53.172;-6.552;2023-04-08T00:50:32;99638.38;;;16.01;34.98
39715;BME280;54166;53.172;-6.552;2023-04-08T00:53:00;99637.18;;;16.00;34.85
39715;BME280;54166;53.172;-6.552;2023-04-08T00:55:28;99635.26;;;15.66;34.85
39715;BME280;54166;53.172;-6.552;2023-04-08T00:57:55;99636.09;;;15.98;34.82
39715;BME280;54166;53.172;-6.552;2023-04-08T01:00:23;99637.35;;;15.64;34.77
39715;BME280;54166;53.172;-6.552;2023-04-08T01:02:55;99635.71;;;15.96;34.71
39715;BME280;54166;53.172;-6.552;2023-04-08T01:05:29;99634.83;;;16.26;34.72
39715;BME280;54166;53.172;-6.552;2023-04-08T01:08:04;99634.29;;;15.89;34.66
39715;BME280;54166;53.172;-6.552;2023-04-08T01:10:34;99634.98;;;15.88;34.57
39715;BME280;54166;53.172;-6.552;2023-04-08T01:13:05;99630.67;;;15.89;34.48
39715;BME280;54166;53.172;-6.552;2023-04-08T01:15:37;99628.66;;;15.87;34.48
39715;BME280;54166;53.172;-6.552;2023-04-08T01:18:08;99628.41;;;16.20;34.49
39715;BME280;54166;53.172;-6.552;2023-04-08T01:20:38;99629.73;;;15.87;34.54
39715;BME280;54166;53.172;-6.552;2023-04-08T01:23:14;99631.50;;;15.85;34.61
39715;BME280;54166;53.172;-6.552;2023-04-08T01:25:45;99631.72;;;16.17;34.64
39715;BME280;54166;53.172;-6.552;2023-04-08T01:28:16;99632.12;;;15.84;34.66
39715;BME280;54166;53.172;-6.552;2023-04-08T01:30:46;99633.62;;;16.17;34.69
39715;BME280;54166;53.172;-6.552;2023-04-08T01:33:16;99629.07;;;16.17;34.73
39715;BME280;54166;53.172;-6.552;2023-04-08T01:35:44;99628.97;;;15.83;34.65
39715;BME280;54166;53.172;-6.552;2023-04-08T01:38:15;99629.43;;;15.83;34.67
39715;BME280;54166;53.172;-6.552;2023-04-08T01:40:44;99629.92;;;15.48;34.65
39715;BME280;54166;53.172;-6.552;2023-04-08T01:43:15;99629.91;;;15.80;34.64
39715;BME280;54166;53.172;-6.552;2023-04-08T01:45:43;99628.67;;;15.79;34.55
39715;BME280;54166;53.172;-6.552;2023-04-08T01:48:13;99626.84;;;15.78;34.45
39715;BME280;54166;53.172;-6.552;2023-04-08T01:50:42;99622.59;;;15.77;34.48
39715;BME280;54166;53.172;-6.552;2023-04-08T01:53:10;99625.32;;;15.77;34.47
39715;BME280;54166;53.172;-6.552;2023-04-08T01:55:40;99628.49;;;15.43;34.52
39715;BME280;54166;53.172;-6.552;2023-04-08T01:58:10;99628.37;;;15.75;34.38
39715;BME280;54166;53.172;-6.552;2023-04-08T02:00:40;99630.06;;;16.07;34.44
39715;BME280;54166;53.172;-6.552;2023-04-08T02:03:11;99633.12;;;15.73;34.38
39715;BME280;54166;53.172;-6.552;2023-04-08T02:05:40;99636.43;;;15.39;34.41
39715;BME280;54166;53.172;-6.552;2023-04-08T02:08:08;99634.38;;;15.72;34.36
39715;BME280;54166;53.172;-6.552;2023-04-08T02:10:35;99627.66;;;16.04;34.38
39715;BME280;54166;53.172;-6.552;2023-04-08T02:13:02;99630.84;;;15.71;34.43
39715;BME280;54166;53.172;-6.552;2023-04-08T02:15:33;99629.00;;;15.71;34.51
39715;BME280;54166;53.172;-6.552;2023-04-08T02:18:10;99629.21;;;15.70;34.49
39715;BME280;54166;53.172;-6.552;2023-04-08T02:20:47;99631.48;;;15.69;34.47
39715;BME280;54166;53.172;-6.552;2023-04-08T02:23:21;99629.36;;;15.67;34.48
39715;BME280;54166;53.172;-6.552;2023-04-08T02:25:52;99626.11;;;15.67;34.53
39715;BME280;54166;53.172;-6.552;2023-04-08T02:28:21;99627.17;;;15.67;34.53
39715;BME280;54166;53.172;-6.552;2023-04-08T02:30:51;99628.11;;;15.68;34.58
39715;BME280;54166;53.172;-6.552;2023-04-08T02:33:20;99627.54;;;15.68;34.58
39715;BME280;54166;53.172;-6.552;2023-04-08T02:35:50;99623.15;;;15.68;34.62
39715;BME280;54166;53.172;-6.552;2023-04-08T02:38:17;99623.21;;;15.67;34.58
39715;BME280;54166;53.172;-6.552;2023-04-08T02:40:44;99622.06;;;15.67;34.53
39715;BME280;54166;53.172;-6.552;2023-04-08T02:43:11;99624.82;;;15.68;34.51
39715;BME280;54166;53.172;-6.552;2023-04-08T02:45:41;99626.10;;;15.99;34.63
39715;BME280;54166;53.172;-6.552;2023-04-08T02:48:08;99620.55;;;15.65;34.61
39715;BME280;54166;53.172;-6.552;2023-04-08T02:50:36;99617.16;;;16.38;34.63
39715;BME280;54166;53.172;-6.552;2023-04-08T02:53:03;99613.11;;;15.64;34.65
39715;BME280;54166;53.172;-6.552;2023-04-08T02:55:30;99619.64;;;15.31;34.66
39715;BME280;54166;53.172;-6.552;2023-04-08T02:57:57;99612.19;;;15.97;34.59
39715;BME280;54166;53.172;-6.552;2023-04-08T03:00:24;99611.60;;;15.63;34.62
39715;BME280;54166;53.172;-6.552;2023-04-08T03:02:51;99611.04;;;15.63;34.61
39715;BME280;54166;53.172;-6.552;2023-04-08T03:05:18;99608.68;;;15.95;34.60
39715;BME280;54166;53.172;-6.552;2023-04-08T03:07:45;99606.98;;;15.61;34.65
39715;BME280;54166;53.172;-6.552;2023-04-08T03:10:12;99610.27;;;15.61;34.68
39715;BME280;54166;53.172;-6.552;2023-04-08T03:12:40;99613.95;;;15.61;34.68
39715;BME280;54166;53.172;-6.552;2023-04-08T03:15:08;99614.94;;;15.93;34.66
39715;BME280;54166;53.172;-6.552;2023-04-08T03:17:35;99616.78;;;15.60;34.70
39715;BME280;54166;53.172;-6.552;2023-04-08T03:20:02;99614.23;;;15.59;34.65
39715;BME280;54166;53.172;-6.552;2023-04-08T03:22:30;99607.44;;;15.59;34.67
39715;BME280;54166;53.172;-6.552;2023-04-08T03:24:57;99607.48;;;15.91;34.68
39715;BME280;54166;53.172;-6.552;2023-04-08T03:27:24;99605.80;;;15.90;34.66
39715;BME280;54166;53.172;-6.552;2023-04-08T03:32:44;99593.91;;;15.86;34.35
39715;BME280;54166;53.172;-6.552;2023-04-08T03:35:11;99595.55;;;15.79;34.39
39715;BME280;54166;53.172;-6.552;2023-04-08T03:37:39;99588.31;;;15.78;34.37
39715;BME280;54166;53.172;-6.552;2023-04-08T03:40:07;99591.37;;;15.79;34.34
39715;BME280;54166;53.172;-6.552;2023-04-08T03:42:35;99590.49;;;15.72;34.46
39715;BME280;54166;53.172;-6.552;2023-04-08T03:45:02;99592.38;;;15.66;34.65
39715;BME280;54166;53.172;-6.552;2023-04-08T03:47:30;99590.42;;;15.63;34.82
39715;BME280;54166;53.172;-6.552;2023-04-08T03:49:57;99594.35;;;15.94;34.94
39715;BME280;54166;53.172;-6.552;2023-04-08T03:52:24;99593.08;;;15.58;35.06
39715;BME280;54166;53.172;-6.552;2023-04-08T03:54:51;99595.95;;;15.91;35.18
39715;BME280;54166;53.172;-6.552;2023-04-08T03:57:18;99598.59;;;15.91;35.25
39715;BME280;54166;53.172;-6.552;2023-04-08T03:59:45;99602.91;;;15.56;35.23
39715;BME280;54166;53.172;-6.552;2023-04-08T04:02:12;99605.69;;;15.88;35.30
39715;BME280;54166;53.172;-6.552;2023-04-08T04:04:40;99610.03;;;15.88;35.30
39715;BME280;54166;53.172;-6.552;2023-04-08T04:07:07;99611.52;;;15.54;35.30
39715;BME280;54166;53.172;-6.552;2023-04-08T04:09:34;99609.45;;;15.54;35.47
39715;BME280;54166;53.172;-6.552;2023-04-08T04:12:01;99615.20;;;15.87;35.43
39715;BME280;54166;53.172;-6.552;2023-04-08T04:14:28;99612.62;;;15.54;35.46
39715;BME280;54166;53.172;-6.552;2023-04-08T04:16:55;99605.27;;;15.54;35.41
39715;BME280;54166;53.172;-6.552;2023-04-08T04:19:22;99605.22;;;15.54;35.51
39715;BME280;54166;53.172;-6.552;2023-04-08T04:21:49;99603.70;;;15.53;35.43
39715;BME280;54166;53.172;-6.552;2023-04-08T04:24:16;99599.25;;;15.52;35.25
39715;BME280;54166;53.172;-6.552;2023-04-08T04:26:43;99605.06;;;15.52;35.11
39715;BME280;54166;53.172;-6.552;2023-04-08T04:29:10;99600.51;;;15.52;35.15
39715;BME280;54166;53.172;-6.552;2023-04-08T04:31:37;99603.00;;;15.50;35.09
39715;BME280;54166;53.172;-6.552;2023-04-08T04:34:04;99605.59;;;15.83;35.03
39715;BME280;54166;53.172;-6.552;2023-04-08T04:36:31;99601.27;;;15.49;34.93
39715;BME280;54166;53.172;-6.552;2023-04-08T04:38:58;99602.38;;;15.49;34.98
39715;BME280;54166;53.172;-6.552;2023-04-08T04:41:25;99602.05;;;15.51;34.97
39715;BME280;54166;53.172;-6.552;2023-04-08T04:43:52;99596.50;;;15.51;35.16
39715;BME280;54166;53.172;-6.552;2023-04-08T04:46:19;99593.28;;;15.85;35.12
39715;BME280;54166;53.172;-6.552;2023-04-08T04:48:46;99595.47;;;15.84;35.22
39715;BME280;54166;53.172;-6.552;2023-04-08T04:53:32;99593.37;;;16.91;35.42
39715;BME280;54166;53.172;-6.552;2023-04-08T04:56:00;99594.75;;;15.65;35.19
39715;BME280;54166;53.172;-6.552;2023-04-08T04:58:27;99598.61;;;15.74;35.06
39715;BME280;54166;53.172;-6.552;2023-04-08T05:00:54;99598.93;;;15.76;34.92
39715;BME280;54166;53.172;-6.552;2023-04-08T05:03:22;99596.52;;;15.76;34.90
39715;BME280;54166;53.172;-6.552;2023-04-08T05:05:50;99594.12;;;15.43;34.75
39715;BME280;54166;53.172;-6.552;2023-04-08T05:08:18;99599.63;;;15.77;34.79
39715;BME280;54166;53.172;-6.552;2023-04-08T05:10:45;99602.92;;;15.43;34.71
39715;BME280;54166;53.172;-6.552;2023-04-08T05:13:12;99602.20;;;15.76;34.75
39715;BME280;54166;53.172;-6.552;2023-04-08T05:15:39;99605.73;;;15.76;34.64
39715;BME280;54166;53.172;-6.552;2023-04-08T05:18:06;99607.22;;;15.75;34.60
39715;BME280;54166;53.172;-6.552;2023-04-08T05:20:33;99608.19;;;15.74;34.65
39715;BME280;54166;53.172;-6.552;2023-04-08T05:23:00;99609.05;;;15.73;34.70
39715;BME280;54166;53.172;-6.552;2023-04-08T05:25:27;99606.22;;;15.75;34.63
39715;BME280;54166;53.172;-6.552;2023-04-08T05:27:55;99603.53;;;15.43;34.46
39715;BME280;54166;53.172;-6.552;2023-04-08T05:30:22;99606.55;;;15.41;34.34
39715;BME280;54166;53.172;-6.552;2023-04-08T05:32:50;99603.89;;;15.49;34.26
39715;BME280;54166;53.172;-6.552;2023-04-08T05:35:17;99603.26;;;15.45;34.30
39715;BME280;54166;53.172;-6.552;2023-04-08T05:37:44;99604.43;;;15.43;34.23
39715;BME280;54166;53.172;-6.552;2023-04-08T05:40:12;99605.18;;;15.41;34.29
39715;BME280;54166;53.172;-6.552;2023-04-08T05:42:39;99604.05;;;15.73;34.24
39715;BME280;54166;53.172;-6.552;2023-04-08T05:45:07;99607.82;;;15.72;34.14
39715;BME280;54166;53.172;-6.552;2023-04-08T05:47:34;99612.22;;;15.37;34.15
39715;BME280;54166;53.172;-6.552;2023-04-08T05:50:01;99613.85;;;15.36;34.11
39715;BME280;54166;53.172;-6.552;2023-04-08T05:52:28;99613.93;;;15.36;34.23
39715;BME280;54166;53.172;-6.552;2023-04-08T05:54:55;99618.21;;;15.35;34.20
39715;BME280;54166;53.172;-6.552;2023-04-08T05:57:22;99617.35;;;15.67;34.24
39715;BME280;54166;53.172;-6.552;2023-04-08T05:59:49;99612.13;;;15.35;34.26
39715;BME280;54166;53.172;-6.552;2023-04-08T06:02:16;99612.42;;;15.34;34.27
39715;BME280;54166;53.172;-6.552;2023-04-08T06:04:43;99617.94;;;15.33;34.14
39715;BME280;54166;53.172;-6.552;2023-04-08T06:07:10;99621.68;;;15.33;34.17
39715;BME280;54166;53.172;-6.552;2023-04-08T06:09:37;99620.64;;;15.32;34.21
39715;BME280;54166;53.172;-6.552;2023-04-08T06:12:04;99620.77;;;15.65;34.21
39715;BME280;54166;53.172;-6.552;2023-04-08T06:14:32;99623.02;;;15.31;34.19
39715;BME280;54166;53.172;-6.552;2023-04-08T06:16:59;99626.39;;;16.03;34.22
39715;BME280;54166;53.172;-6.552;2023-04-08T06:19:26;99626.40;;;15.63;34.14
39715;BME280;54166;53.172;-6.552;2023-04-08T06:21:53;99629.02;;;15.30;34.24
39715;BME280;54166;53.172;-6.552;2023-04-08T06:24:20;99628.81;;;15.29;34.18
39715;BME280;54166;53.172;-6.552;2023-04-08T06:26:47;99634.79;;;15.29;34.26
39715;BME280;54166;53.172;-6.552;2023-04-08T06:29:13;99636.42;;;15.62;34.13
39715;BME280;54166;53.172;-6.552;2023-04-08T06:31:41;99631.79;;;15.28;34.26
39715;BME280;54166;53.172;-6.552;2023-04-08T06:34:07;99640.85;;;15.28;34.29
39715;BME280;54166;53.172;-6.552;2023-04-08T06:36:34;99640.29;;;15.61;34.18
39715;BME280;54166;53.172;-6.552;2023-04-08T06:39:02;99642.16;;;15.27;34.11
39715;BME280;54166;53.172;-6.552;2023-04-08T06:41:28;99642.89;;;16.00;34.02
39715;BME280;54166;53.172;-6.552;2023-04-08T06:43:55;99648.22;;;15.59;34.02
39715;BME280;54166;53.172;-6.552;2023-04-08T06:46:23;99657.92;;;15.25;34.03
39715;BME280;54166;53.172;-6.552;2023-04-08T06:48:50;99657.47;;;15.25;34.05
39715;BME280;54166;53.172;-6.552;2023-04-08T06:51:18;99659.51;;;15.25;33.93
39715;BME280;54166;53.172;-6.552;2023-04-08T06:53:45;99655.78;;;15.58;34.00
39715;BME280;54166;53.172;-6.552;2023-04-08T06:56:12;99658.23;;;15.58;34.03
39715;BME280;54166;53.172;-6.552;2023-04-08T06:58:39;99663.32;;;15.24;34.04
39715;BME280;54166;53.172;-6.552;2023-04-08T07:01:06;99661.48;;;15.57;34.09
39715;BME280;54166;53.172;-6.552;2023-04-08T07:03:33;99665.88;;;15.58;34.07
39715;BME280;54166;53.172;-6.552;2023-04-08T07:06:00;99666.19;;;15.23;34.01
39715;BME280;54166;53.172;-6.552;2023-04-08T07:08:27;99662.73;;;15.23;34.05
39715;BME280;54166;53.172;-6.552;2023-04-08T07:10:54;99668.43;;;15.24;33.96
39715;BME280;54166;53.172;-6.552;2023-04-08T07:13:21;99669.47;;;15.23;34.04
39715;BME280;54166;53.172;-6.552;2023-04-08T07:15:49;99667.27;;;15.23;34.08
39715;BME280;54166;53.172;-6.552;2023-04-08T07:18:16;99662.12;;;15.23;34.31
39715;BME280;54166;53.172;-6.552;2023-04-08T07:20:43;99670.27;;;15.24;34.32
39715;BME280;54166;53.172;-6.552;2023-04-08T07:23:10;99670.44;;;15.24;34.30
39715;BME280;54166;53.172;-6.552;2023-04-08T07:25:37;99668.93;;;15.24;34.28
39715;BME280;54166;53.172;-6.552;2023-04-08T07:28:04;99675.21;;;15.58;34.10
39715;BME280;54166;53.172;-6.552;2023-04-08T07:30:30;99679.64;;;15.26;34.06
39715;BME280;54166;53.172;-6.552;2023-04-08T07:32:57;99683.88;;;15.26;34.04
39715;BME280;54166;53.172;-6.552;2023-04-08T07:35:24;99683.85;;;15.25;34.06
39715;BME280;54166;53.172;-6.552;2023-04-08T07:37:51;99686.66;;;15.26;34.13
39715;BME280;54166;53.172;-6.552;2023-04-08T07:40:18;99690.39;;;15.26;34.13
39715;BME280;54166;53.172;-6.552;2023-04-08T07:42:45;99689.81;;;15.60;34.17
39715;BME280;54166;53.172;-6.552;2023-04-08T07:45:12;99693.03;;;15.60;34.20
39715;BME280;54166;53.172;-6.552;2023-04-08T07:47:39;99696.29;;;15.60;34.25
39715;BME280;54166;53.172;-6.552;2023-04-08T07:50:07;99695.24;;;15.59;34.27
39715;BME280;54166;53.172;-6.552;2023-04-08T07:52:34;99703.59;;;15.26;34.31
39715;BME280;54166;53.172;-6.552;2023-04-08T07:55:01;99701.01;;;15.60;34.38
39715;BME280;54166;53.172;-6.552;2023-04-08T07:57:29;99702.70;;;15.60;34.38
39715;BME280;54166;53.172;-6.552;2023-04-08T07:59:56;99703.81;;;15.27;34.20
39715;BME280;54166;53.172;-6.552;2023-04-08T08:02:23;99709.50;;;15.26;34.28
39715;BME280;54166;53.172;-6.552;2023-04-08T08:04:50;99715.83;;;15.59;34.37
39715;BME280;54166;53.172;-6.552;2023-04-08T08:07:17;99714.66;;;15.25;34.32
39715;BME280;54166;53.172;-6.552;2023-04-08T08:09:45;99719.81;;;15.26;34.36
39715;BME280;54166;53.172;-6.552;2023-04-08T08:12:12;99724.33;;;15.26;34.39
39715;BME280;54166;53.172;-6.552;2023-04-08T08:14:39;99729.11;;;15.60;34.35
39715;BME280;54166;53.172;-6.552;2023-04-08T08:17:06;99730.08;;;15.27;34.79
39715;BME280;54166;53.172;-6.552;2023-04-08T08:19:33;99728.01;;;16.01;34.68
39715;BME280;54166;53.172;-6.552;2023-04-08T08:22:00;99726.51;;;15.27;34.57
39715;BME280;54166;53.172;-6.552;2023-04-08T08:24:27;99727.65;;;15.60;34.52
39715;BME280;54166;53.172;-6.552;2023-04-08T08:26:53;99724.17;;;16.01;34.56
39715;BME280;54166;53.172;-6.552;2023-04-08T08:29:20;99724.51;;;15.27;34.49
39715;BME280;54166;53.172;-6.552;2023-04-08T08:31:47;99722.52;;;15.60;34.60
39715;BME280;54166;53.172;-6.552;2023-04-08T08:34:14;99723.75;;;15.27;34.43
39715;BME280;54166;53.172;-6.552;2023-04-08T08:36:41;99723.97;;;15.62;34.73
39715;BME280;54166;53.172;-6.552;2023-04-08T08:39:08;99720.31;;;15.31;34.56
39715;BME280;54166;53.172;-6.552;2023-04-08T08:41:35;99722.84;;;15.32;34.60
39715;BME280;54166;53.172;-6.552;2023-04-08T08:44:05;99722.64;;;15.72;34.56
39715;BME280;54166;53.172;-6.552;2023-04-08T08:46:33;99717.12;;;15.37;34.47
39715;BME280;54166;53.172;-6.552;2023-04-08T08:49:02;99717.93;;;15.34;34.35
39715;BME280;54166;53.172;-6.552;2023-04-08T08:51:30;99721.66;;;15.68;34.28
39715;BME280;54166;53.172;-6.552;2023-04-08T08:54:01;99720.44;;;16.06;34.28
39715;BME280;54166;53.172;-6.552;2023-04-08T08:56:29;99724.91;;;15.65;34.30
39715;BME280;54166;53.172;-6.552;2023-04-08T08:58:56;99724.43;;;15.65;34.36
39715;BME280;54166;53.172;-6.552;2023-04-08T09:01:32;99724.56;;;15.33;34.33
39715;BME280;54166;53.172;-6.552;2023-04-08T09:04:07;99723.04;;;15.65;34.34
39715;BME280;54166;53.172;-6.552;2023-04-08T09:06:38;99719.55;;;15.31;34.34
39715;BME280;54166;53.172;-6.552;2023-04-08T09:09:11;99716.99;;;15.32;34.39
39715;BME280;54166;53.172;-6.552;2023-04-08T09:11:39;99719.10;;;15.33;34.45
39715;BME280;54166;53.172;-6.552;2023-04-08T09:14:23;99719.44;;;15.67;34.38
39715;BME280;54166;53.172;-6.552;2023-04-08T09:16:56;99717.16;;;15.32;34.43
39715;BME280;54166;53.172;-6.552;2023-04-08T09:19:23;99719.36;;;15.68;34.38
39715;BME280;54166;53.172;-6.552;2023-04-08T09:22:10;99717.20;;;15.36;34.40
39715;BME280;54166;53.172;-6.552;2023-04-08T09:24:41;99713.72;;;15.67;34.52
39715;BME280;54166;53.172;-6.552;2023-04-08T09:27:09;99712.08;;;15.36;34.56
39715;BME280;54166;53.172;-6.552;2023-04-08T09:29:43;99716.99;;;15.39;34.54
39715;BME280;54166;53.172;-6.552;2023-04-08T09:32:15;99710.09;;;15.72;34.60
39715;BME280;54166;53.172;-6.552;2023-04-08T09:34:42;99712.94;;;15.73;34.57
39715;BME280;54166;53.172;-6.552;2023-04-08T09:37:13;99710.26;;;15.42;34.56
39715;BME280;54166;53.172;-6.552;2023-04-08T09:39:40;99711.59;;;15.44;34.64
39715;BME280;54166;53.172;-6.552;2023-04-08T09:42:13;99717.11;;;15.79;34.78
39715;BME280;54166;53.172;-6.552;2023-04-08T09:44:48;99716.97;;;15.78;34.80
39715;BME280;54166;53.172;-6.552;2023-04-08T09:47:24;99719.19;;;15.45;34.87
39715;BME280;54166;53.172;-6.552;2023-04-08T09:50:04;99722.64;;;15.45;34.74
39715;BME280;54166;53.172;-6.552;2023-04-08T09:52:44;99720.80;;;15.44;34.71
39715;BME280;54166;53.172;-6.552;2023-04-08T09:55:21;99725.77;;;15.77;34.74
39715;BME280;54166;53.172;-6.552;2023-04-08T09:57:54;99725.75;;;15.44;34.68
39715;BME280;54166;53.172;-6.552;2023-04-08T10:00:29;99729.11;;;15.45;34.59
39715;BME280;54166;53.172;-6.552;2023-04-08T10:03:04;99724.14;;;15.45;34.60
39715;BME280;54166;53.172;-6.552;2023-04-08T10:05:35;99724.24;;;15.79;34.69
39715;BME280;54166;53.172;-6.552;2023-04-08T10:08:04;99722.76;;;15.47;34.64
39715;BME280;54166;53.172;-6.552;2023-04-08T10:10:32;99726.93;;;15.82;34.72
39715;BME280;54166;53.172;-6.552;2023-04-08T10:13:01;99723.53;;;15.50;34.70
39715;BME280;54166;53.172;-6.552;2023-04-08T10:15:30;99719.76;;;15.51;34.89
39715;BME280;54166;53.172;-6.552;2023-04-08T10:18:30;99720.04;;;15.53;34.87
39715;BME280;54166;53.172;-6.552;2023-04-08T10:20:58;99719.82;;;15.48;34.99
39715;BME280;54166;53.172;-6.552;2023-04-08T10:23:53;99721.46;;;15.51;34.96
39715;BME280;54166;53.172;-6.552;2023-04-08T10:26:53;99716.28;;;16.54;35.05
39715;BME280;54166;53.172;-6.552;2023-04-08T10:29:31;99713.27;;;15.45;35.14
39715;BME280;54166;53.172;-6.552;2023-04-08T10:31:59;99711.00;;;15.81;35.12
39715;BME280;54166;53.172;-6.552;2023-04-08T10:34:27;99714.46;;;15.86;35.18
39715;BME280;54166;53.172;-6.552;2023-04-08T10:36:55;99709.61;;;15.56;35.19
39715;BME280;54166;53.172;-6.552;2023-04-08T10:39:24;99711.91;;;15.92;35.23
39715;BME280;54166;53.172;-6.552;2023-04-08T10:41:51;99709.59;;;15.62;35.29
39715;BME280;54166;53.172;-6.552;2023-04-08T10:44:19;99704.24;;;15.30;35.29
39715;BME280;54166;53.172;-6.552;2023-04-08T10:46:48;99702.09;;;15.33;35.30
39715;BME280;54166;53.172;-6.552;2023-04-08T10:49:16;99696.46;;;16.01;35.32
39715;BME280;54166;53.172;-6.552;2023-04-08T10:51:45;99697.45;;;15.68;35.39
39715;BME280;54166;53.172;-6.552;2023-04-08T10:54:15;99702.26;;;15.69;35.41
39715;BME280;54166;53.172;-6.552;2023-04-08T10:56:44;99692.72;;;16.43;35.45
39715;BME280;54166;53.172;-6.552;2023-04-08T10:59:13;99687.64;;;15.71;35.48
39715;BME280;54166;53.172;-6.552;2023-04-08T11:01:42;99689.23;;;15.77;35.44
39715;BME280;54166;53.172;-6.552;2023-04-08T11:04:13;99693.43;;;15.80;35.46
39715;BME280;54166;53.172;-6.552;2023-04-08T11:06:43;99690.97;;;15.82;35.48
39715;BME280;54166;53.172;-6.552;2023-04-08T11:09:11;99691.00;;;16.17;35.48
39715;BME280;54166;53.172;-6.552;2023-04-08T11:11:41;99693.31;;;15.86;35.50
39715;BME280;54166;53.172;-6.552;2023-04-08T11:14:09;99689.65;;;15.87;35.51
39715;BME280;54166;53.172;-6.552;2023-04-08T11:16:37;99688.49;;;15.89;35.51
39715;BME280;54166;53.172;-6.552;2023-04-08T11:19:05;99687.80;;;15.91;35.64
39715;BME280;54166;53.172;-6.552;2023-04-08T11:21:35;99691.54;;;15.94;35.69
39715;BME280;54166;53.172;-6.552;2023-04-08T11:24:08;99679.98;;;15.63;35.63
39715;BME280;54166;53.172;-6.552;2023-04-08T11:26:36;99683.52;;;15.97;35.71
39715;BME280;54166;53.172;-6.552;2023-04-08T11:29:05;99680.44;;;16.01;35.76
39715;BME280;54166;53.172;-6.552;2023-04-08T11:31:33;99682.07;;;16.02;35.81
39715;BME280;54166;53.172;-6.552;2023-04-08T11:34:00;99680.92;;;16.05;35.84
39715;BME280;54166;53.172;-6.552;2023-04-08T11:36:29;99678.20;;;16.06;35.89
39715;BME280;54166;53.172;-6.552;2023-04-08T11:38:56;99681.65;;;16.08;35.91
39715;BME280;54166;53.172;-6.552;2023-04-08T11:41:24;99679.03;;;16.08;35.96
39715;BME280;54166;53.172;-6.552;2023-04-08T11:44:03;99679.47;;;16.41;36.02
39715;BME280;54166;53.172;-6.552;2023-04-08T11:46:32;99680.46;;;16.10;36.07
39715;BME280;54166;53.172;-6.552;2023-04-08T11:49:01;99686.37;;;16.13;36.10
39715;BME280;54166;53.172;-6.552;2023-04-08T11:51:29;99677.75;;;16.14;36.16
39715;BME280;54166;53.172;-6.552;2023-04-08T11:53:57;99676.14;;;16.15;36.28
39715;BME280;54166;53.172;-6.552;2023-04-08T11:56:25;99675.53;;;16.20;36.29
39715;BME280;54166;53.172;-6.552;2023-04-08T11:58:52;99677.42;;;16.20;36.31
39715;BME280;54166;53.172;-6.552;2023-04-08T12:01:19;99669.95;;;16.20;36.38
39715;BME280;54166;53.172;-6.552;2023-04-08T12:03:56;99679.79;;;16.21;36.40
39715;BME280;54166;53.172;-6.552;2023-04-08T12:06:24;99671.07;;;16.20;36.41
39715;BME280;54166;53.172;-6.552;2023-04-08T12:08:51;99675.06;;;16.22;36.40
39715;BME280;54166;53.172;-6.552;2023-04-08T12:11:18;99676.63;;;15.90;36.28
39715;BME280;54166;53.172;-6.552;2023-04-08T12:13:46;99679.07;;;16.26;36.31
39715;BME280;54166;53.172;-6.552;2023-04-08T12:16:14;99677.28;;;16.28;36.43
39715;BME280;54166;53.172;-6.552;2023-04-08T12:18:42;99674.97;;;16.28;36.38
39715;BME280;54166;53.172;-6.552;2023-04-08T12:21:09;99680.19;;;16.27;36.42
39715;BME280;54166;53.172;-6.552;2023-04-08T12:23:35;99685.81;;;16.24;36.37
39715;BME280;54166;53.172;-6.552;2023-04-08T12:26:03;99679.55;;;15.93;36.38
39715;BME280;54166;53.172;-6.552;2023-04-08T12:28:29;99684.82;;;16.23;36.39
39715;BME280;54166;53.172;-6.552;2023-04-08T12:30:56;99679.86;;;16.22;36.38
39715;BME280;54166;53.172;-6.552;2023-04-08T12:33:23;99682.40;;;15.90;36.35
39715;BME280;54166;53.172;-6.552;2023-04-08T12:35:51;99673.48;;;16.23;36.34
39715;BME280;54166;53.172;-6.552;2023-04-08T12:38:19;99674.99;;;16.21;36.49
39715;BME280;54166;53.172;-6.552;2023-04-08T12:40:47;99674.23;;;15.87;36.49
39715;BME280;54166;53.172;-6.552;2023-04-08T12:43:14;99678.70;;;15.89;36.54
39715;BME280;54166;53.172;-6.552;2023-04-08T12:45:41;99689.39;;;16.19;36.63
39715;BME280;54166;53.172;-6.552;2023-04-08T12:48:08;99683.34;;;16.20;36.62
39715;BME280;54166;53.172;-6.552;2023-04-08T12:50:35;99684.44;;;16.21;36.60
39715;BME280;54166;53.172;-6.552;2023-04-08T12:53:02;99683.58;;;16.23;36.62
39715;BME280;54166;53.172;-6.552;2023-04-08T12:55:29;99677.27;;;16.23;36.63
39715;BME280;54166;53.172;-6.552;2023-04-08T12:57:56;99684.46;;;16.23;36.67
39715;BME280;54166;53.172;-6.552;2023-04-08T13:00:23;99677.36;;;16.22;36.74
39715;BME280;54166;53.172;-6.552;2023-04-08T13:02:50;99684.45;;;16.22;36.76